N77AD KWHP-KCMA
Flight info
| Callsign | N77AD |
|---|---|
| Flight time | 0h 30m |
| Altitude | 5000 |
| Route | KWHP VNY V326 CANOG V326 SUANA V326 GINNA KCMA |
| Aircraft | C152/L-S/1200 |
Departure
| Time | 2026-05-05 04:36 |
|---|---|
| Airport | Whiteman Airport (KWHP) |
Arrival
| Time | 2026-05-05 05:06 |
|---|---|
| Airport | Camarillo International Airport (KCMA) |
| Time | Latitude | Longitude | Altitude | Speed | Heading |
|---|---|---|---|---|---|
| 2026-05-05 04:05 | 34.26293 | -118.41643 | 1003 ft | 0 kts | 106° |
| 2026-05-05 04:31 | 34.26293 | -118.41640 | 1007 ft | 3 kts | 105° |
| 2026-05-05 04:32 | 34.26283 | -118.41654 | 1009 ft | 5 kts | 310° |
| 2026-05-05 04:32 | 34.26314 | -118.41687 | 1011 ft | 7 kts | 318° |
| 2026-05-05 04:32 | 34.26359 | -118.41734 | 1013 ft | 8 kts | 318° |
| 2026-05-05 04:32 | 34.26365 | -118.41741 | 1013 ft | 0 kts | 314° |
| 2026-05-05 04:33 | 34.26366 | -118.41743 | 1013 ft | 4 kts | 312° |
| 2026-05-05 04:33 | 34.26366 | -118.41770 | 1014 ft | 7 kts | 236° |
| 2026-05-05 04:33 | 34.26295 | -118.41727 | 1011 ft | 28 kts | 139° |
| 2026-05-05 04:34 | 34.26049 | -118.41475 | 1007 ft | 61 kts | 142° |
| 2026-05-05 04:34 | 34.25718 | -118.41081 | 1073 ft | 68 kts | 146° |
| 2026-05-05 04:34 | 34.25336 | -118.41151 | 1197 ft | 64 kts | 221° |
| 2026-05-05 04:34 | 34.25083 | -118.41583 | 1299 ft | 66 kts | 243° |
| 2026-05-05 04:35 | 34.25130 | -118.42141 | 1379 ft | 74 kts | 299° |
| 2026-05-05 04:35 | 34.25519 | -118.42601 | 1433 ft | 81 kts | 316° |
| 2026-05-05 04:35 | 34.25978 | -118.43061 | 1450 ft | 88 kts | 321° |
| 2026-05-05 04:35 | 34.26443 | -118.43492 | 1595 ft | 83 kts | 322° |
| 2026-05-05 04:36 | 34.26867 | -118.43951 | 1708 ft | 83 kts | 308° |
| 2026-05-05 04:36 | 34.27284 | -118.44416 | 1895 ft | 78 kts | 324° |
| 2026-05-05 04:36 | 34.27724 | -118.44746 | 2045 ft | 73 kts | 319° |
| 2026-05-05 04:36 | 34.28180 | -118.45070 | 2162 ft | 77 kts | 335° |
| 2026-05-05 04:37 | 34.28675 | -118.45302 | 2311 ft | 72 kts | 320° |
| 2026-05-05 04:37 | 34.28986 | -118.45764 | 2440 ft | 70 kts | 305° |
| 2026-05-05 04:37 | 34.29192 | -118.46272 | 2571 ft | 69 kts | 282° |
| 2026-05-05 04:37 | 34.29295 | -118.46833 | 2695 ft | 66 kts | 277° |
| 2026-05-05 04:38 | 34.29440 | -118.47355 | 2850 ft | 65 kts | 289° |
| 2026-05-05 04:38 | 34.29784 | -118.47778 | 2893 ft | 81 kts | 340° |
| 2026-05-05 04:38 | 34.30237 | -118.48043 | 3074 ft | 69 kts | 314° |
| 2026-05-05 04:38 | 34.30551 | -118.48447 | 3211 ft | 61 kts | 287° |
| 2026-05-05 04:39 | 34.30726 | -118.48971 | 3226 ft | 75 kts | 290° |
| 2026-05-05 04:39 | 34.31055 | -118.49465 | 3335 ft | 74 kts | 305° |
| 2026-05-05 04:39 | 34.31444 | -118.49896 | 3429 ft | 74 kts | 316° |
| 2026-05-05 04:39 | 34.31849 | -118.50291 | 3527 ft | 77 kts | 314° |
| 2026-05-05 04:40 | 34.32245 | -118.50665 | 3684 ft | 70 kts | 306° |
| 2026-05-05 04:40 | 34.32437 | -118.51102 | 3848 ft | 54 kts | 265° |
| 2026-05-05 04:40 | 34.32403 | -118.51568 | 3915 ft | 57 kts | 247° |
| 2026-05-05 04:40 | 34.32280 | -118.52039 | 3966 ft | 60 kts | 244° |
| 2026-05-05 04:41 | 34.32253 | -118.52591 | 4016 ft | 68 kts | 267° |
| 2026-05-05 04:41 | 34.32322 | -118.53126 | 4169 ft | 66 kts | 279° |
| 2026-05-05 04:41 | 34.32620 | -118.53563 | 4315 ft | 71 kts | 319° |
| 2026-05-05 04:41 | 34.33107 | -118.53785 | 4359 ft | 83 kts | 345° |
| 2026-05-05 04:42 | 34.33497 | -118.54055 | 4356 ft | 70 kts | 241° |
| 2026-05-05 04:42 | 34.33380 | -118.54648 | 4433 ft | 75 kts | 282° |
| 2026-05-05 04:42 | 34.33725 | -118.55094 | 4649 ft | 64 kts | 302° |
| 2026-05-05 04:42 | 34.33730 | -118.55581 | 4627 ft | 63 kts | 229° |
| 2026-05-05 04:43 | 34.33395 | -118.55979 | 4669 ft | 74 kts | 223° |
| 2026-05-05 04:43 | 34.33008 | -118.56411 | 4705 ft | 77 kts | 219° |
| 2026-05-05 04:43 | 34.32602 | -118.56838 | 4735 ft | 78 kts | 219° |
| 2026-05-05 04:43 | 34.32144 | -118.57202 | 4817 ft | 75 kts | 204° |
| 2026-05-05 04:44 | 34.31691 | -118.57431 | 4968 ft | 67 kts | 201° |
| 2026-05-05 04:44 | 34.31231 | -118.57654 | 5035 ft | 77 kts | 205° |
| 2026-05-05 04:44 | 34.30727 | -118.57933 | 5037 ft | 82 kts | 208° |
| 2026-05-05 04:44 | 34.30225 | -118.58238 | 5051 ft | 83 kts | 210° |
| 2026-05-05 04:45 | 34.29712 | -118.58578 | 5063 ft | 82 kts | 211° |
| 2026-05-05 04:45 | 34.29195 | -118.58897 | 5042 ft | 85 kts | 210° |
| 2026-05-05 04:45 | 34.28721 | -118.59306 | 5047 ft | 81 kts | 219° |
| 2026-05-05 04:45 | 34.28237 | -118.59696 | 4993 ft | 86 kts | 213° |
| 2026-05-05 04:46 | 34.27749 | -118.60079 | 5010 ft | 83 kts | 215° |
| 2026-05-05 04:46 | 34.27250 | -118.60482 | 4981 ft | 85 kts | 214° |
| 2026-05-05 04:46 | 34.26762 | -118.60874 | 4989 ft | 85 kts | 213° |
| 2026-05-05 04:46 | 34.26267 | -118.61249 | 4986 ft | 83 kts | 213° |
| 2026-05-05 04:47 | 34.25745 | -118.61590 | 4942 ft | 87 kts | 206° |
| 2026-05-05 04:47 | 34.25207 | -118.61861 | 4973 ft | 83 kts | 205° |
| 2026-05-05 04:47 | 34.24692 | -118.62145 | 5017 ft | 78 kts | 202° |
| 2026-05-05 04:47 | 34.24147 | -118.62288 | 5015 ft | 79 kts | 194° |
| 2026-05-05 04:48 | 34.23618 | -118.62464 | 5036 ft | 81 kts | 205° |
| 2026-05-05 04:48 | 34.23165 | -118.62837 | 5056 ft | 79 kts | 225° |
| 2026-05-05 04:48 | 34.22848 | -118.63377 | 5082 ft | 79 kts | 233° |
| 2026-05-05 04:48 | 34.22538 | -118.63935 | 5128 ft | 77 kts | 238° |
| 2026-05-05 04:49 | 34.22334 | -118.64562 | 5111 ft | 82 kts | 248° |
| 2026-05-05 04:49 | 34.22242 | -118.65252 | 5054 ft | 90 kts | 262° |
| 2026-05-05 04:49 | 34.22243 | -118.66000 | 5052 ft | 86 kts | 265° |
| 2026-05-05 04:49 | 34.22276 | -118.66697 | 5054 ft | 85 kts | 273° |
| 2026-05-05 04:50 | 34.22277 | -118.67370 | 5097 ft | 80 kts | 264° |
| 2026-05-05 04:50 | 34.22284 | -118.68067 | 5042 ft | 87 kts | 270° |
| 2026-05-05 04:50 | 34.22258 | -118.68783 | 5024 ft | 86 kts | 266° |
| 2026-05-05 04:50 | 34.22267 | -118.69511 | 4975 ft | 86 kts | 270° |
| 2026-05-05 04:51 | 34.22251 | -118.70212 | 4987 ft | 82 kts | 262° |
| 2026-05-05 04:51 | 34.22204 | -118.70913 | 4961 ft | 84 kts | 263° |
| 2026-05-05 04:51 | 34.22125 | -118.71608 | 4951 ft | 85 kts | 257° |
| 2026-05-05 04:51 | 34.22018 | -118.72335 | 4894 ft | 87 kts | 260° |
| 2026-05-05 04:52 | 34.21920 | -118.73042 | 4874 ft | 86 kts | 262° |
| 2026-05-05 04:52 | 34.21937 | -118.73763 | 4887 ft | 81 kts | 269° |
| 2026-05-05 04:52 | 34.21991 | -118.74425 | 4920 ft | 77 kts | 271° |
| 2026-05-05 04:52 | 34.22095 | -118.75036 | 4980 ft | 75 kts | 285° |
| 2026-05-05 04:53 | 34.22223 | -118.75435 | 4984 ft | 76 kts | 279° |
| 2026-05-05 04:53 | 34.22358 | -118.76101 | 4883 ft | 87 kts | 277° |
| 2026-05-05 04:53 | 34.22417 | -118.76798 | 4859 ft | 86 kts | 272° |
| 2026-05-05 04:53 | 34.22534 | -118.77536 | 4747 ft | 92 kts | 286° |
| 2026-05-05 04:54 | 34.22840 | -118.78177 | 4756 ft | 92 kts | 304° |
| 2026-05-05 04:54 | 34.23291 | -118.78721 | 4670 ft | 93 kts | 311° |
| 2026-05-05 04:54 | 34.23759 | -118.79256 | 4560 ft | 94 kts | 310° |
| 2026-05-05 04:54 | 34.24231 | -118.79804 | 4454 ft | 94 kts | 309° |
| 2026-05-05 04:55 | 34.24554 | -118.80427 | 4390 ft | 85 kts | 270° |
| 2026-05-05 04:55 | 34.24392 | -118.81122 | 4228 ft | 91 kts | 246° |
| 2026-05-05 04:55 | 34.24118 | -118.81846 | 4032 ft | 96 kts | 248° |
| 2026-05-05 04:55 | 34.23937 | -118.82619 | 3882 ft | 96 kts | 259° |
| 2026-05-05 04:56 | 34.23819 | -118.83408 | 3744 ft | 94 kts | 258° |
| 2026-05-05 04:56 | 34.23659 | -118.84208 | 3489 ft | 101 kts | 256° |
| 2026-05-05 04:56 | 34.23472 | -118.85015 | 3240 ft | 100 kts | 255° |
| 2026-05-05 04:56 | 34.23321 | -118.85888 | 2795 ft | 113 kts | 259° |
| 2026-05-05 04:57 | 34.23176 | -118.86776 | 2622 ft | 102 kts | 259° |
| 2026-05-05 04:57 | 34.23119 | -118.87611 | 2492 ft | 98 kts | 265° |
| 2026-05-05 04:57 | 34.23059 | -118.88425 | 2354 ft | 97 kts | 264° |
| 2026-05-05 04:57 | 34.23004 | -118.89245 | 2075 ft | 104 kts | 266° |
| 2026-05-05 04:58 | 34.23001 | -118.90088 | 1976 ft | 92 kts | 271° |
| 2026-05-05 04:58 | 34.22979 | -118.90823 | 1965 ft | 87 kts | 264° |
| 2026-05-05 04:58 | 34.22942 | -118.91546 | 1943 ft | 84 kts | 264° |
| 2026-05-05 04:58 | 34.22940 | -118.92240 | 1941 ft | 81 kts | 271° |
| 2026-05-05 04:59 | 34.22923 | -118.92893 | 1961 ft | 79 kts | 259° |
| 2026-05-05 04:59 | 34.22770 | -118.93531 | 1923 ft | 79 kts | 248° |
| 2026-05-05 04:59 | 34.22610 | -118.94125 | 1970 ft | 70 kts | 256° |
| 2026-05-05 04:59 | 34.22501 | -118.94707 | 1974 ft | 68 kts | 258° |
| 2026-05-05 05:00 | 34.22460 | -118.95283 | 1969 ft | 68 kts | 262° |
| 2026-05-05 05:00 | 34.22424 | -118.95840 | 1986 ft | 64 kts | 261° |
| 2026-05-05 05:00 | 34.22372 | -118.96351 | 2081 ft | 60 kts | 263° |
| 2026-05-05 05:00 | 34.22333 | -118.96880 | 2099 ft | 66 kts | 264° |
| 2026-05-05 05:01 | 34.22301 | -118.97454 | 2154 ft | 71 kts | 268° |
| 2026-05-05 05:01 | 34.22266 | -118.98074 | 2189 ft | 76 kts | 264° |
| 2026-05-05 05:01 | 34.22190 | -118.98724 | 2158 ft | 82 kts | 263° |
| 2026-05-05 05:01 | 34.22151 | -118.99436 | 2046 ft | 88 kts | 270° |
| 2026-05-05 05:02 | 34.22181 | -119.00152 | 1937 ft | 83 kts | 274° |
| 2026-05-05 05:02 | 34.22072 | -119.00842 | 1716 ft | 87 kts | 256° |
| 2026-05-05 05:02 | 34.21931 | -119.01536 | 1486 ft | 83 kts | 266° |
| 2026-05-05 05:02 | 34.21935 | -119.02245 | 1227 ft | 84 kts | 271° |
| 2026-05-05 05:03 | 34.21943 | -119.02944 | 1004 ft | 81 kts | 268° |
| 2026-05-05 05:03 | 34.21860 | -119.03543 | 894 ft | 62 kts | 254° |
| 2026-05-05 05:03 | 34.21725 | -119.04070 | 750 ft | 64 kts | 252° |
| 2026-05-05 05:03 | 34.21606 | -119.04586 | 651 ft | 63 kts | 256° |
| 2026-05-05 05:04 | 34.21514 | -119.05088 | 572 ft | 61 kts | 257° |
| 2026-05-05 05:04 | 34.21440 | -119.05604 | 490 ft | 62 kts | 259° |
| 2026-05-05 05:04 | 34.21402 | -119.06121 | 437 ft | 60 kts | 263° |
| 2026-05-05 05:04 | 34.21356 | -119.06599 | 387 ft | 56 kts | 265° |
| 2026-05-05 05:05 | 34.21345 | -119.07074 | 359 ft | 58 kts | 268° |
| 2026-05-05 05:05 | 34.21354 | -119.07577 | 302 ft | 63 kts | 271° |
| 2026-05-05 05:05 | 34.21363 | -119.08130 | 204 ft | 68 kts | 269° |
| 2026-05-05 05:05 | 34.21370 | -119.08654 | 88 ft | 52 kts | 270° |
| 2026-05-05 05:06 | 34.21370 | -119.08979 | 71 ft | 26 kts | 269° |
| 2026-05-05 05:06 | 34.21352 | -119.09106 | 71 ft | 9 kts | 171° |
| 2026-05-05 05:06 | 34.21292 | -119.09098 | 72 ft | 8 kts | 178° |
| 2026-05-05 05:06 | 34.21228 | -119.09079 | 69 ft | 8 kts | 142° |
| 2026-05-05 05:07 | 34.21185 | -119.09086 | 69 ft | 5 kts | 231° |
| 2026-05-05 05:07 | 34.21184 | -119.09088 | 70 ft | 0 kts | 231° |